Time;durP1;ratioP1;P1;durP2;ratioP2;P2;SDS_P1;SDS_P2;PMS_P1;PMS_P2;Temp;Humidity;BMP_temperature;BMP_pressure;BME280_temperature;BME280_humidity;BME280_pressure;Samples;Min_cycle;Max_cycle;Signal;HPM_P1;HPM_P2
2021/07/20 00:02:39;;;;;;;;;;;15.90;65.20;15.10;102098.00;;;;5042622;28;19995;-87
2021/07/20 00:05:06;;;;;;;;;;;15.90;65.60;15.00;102090.00;;;;5010016;28;19940;-87
2021/07/20 00:07:33;;;;;;;;;;;15.80;66.30;15.00;102102.00;;;;4988139;28;19967;-86
2021/07/20 00:10:00;;;;;;;;;;;15.90;65.30;15.00;102100.00;;;;5051242;28;20038;-87
2021/07/20 00:12:26;;;;;;;;;;;15.80;66.40;14.90;102105.00;;;;5025006;28;19924;-87
2021/07/20 00:14:53;;;;;;;;;;;15.70;67.20;15.00;102113.00;;;;5021521;28;19935;-87
2021/07/20 00:17:22;;;;;;;;;;;;;14.90;102090.00;;;;5024185;28;19987;-87
2021/07/20 00:19:49;;;;;;;;;;;15.20;66.60;14.90;102094.00;;;;5025158;28;19955;-85
2021/07/20 00:22:19;;;;;;;;;;;15.70;67.60;14.90;102098.00;;;;5011967;28;20398;-87
2021/07/20 00:24:47;;;;;;;;;;;15.70;68.20;14.90;102099.00;;;;5025577;28;19920;-87
2021/07/20 00:27:13;;;;;;;;;;;;;14.90;102100.00;;;;5045216;28;19948;-87
2021/07/20 00:29:42;;;;;;;;;;;15.70;66.50;14.80;102107.00;;;;5010616;28;19920;-86
2021/07/20 00:32:08;;;;;;;;;;;15.60;66.30;14.80;102098.00;;;;5025594;28;19924;-86
2021/07/20 00:34:34;;;;;;;;;;;15.60;68.40;14.80;102097.00;;;;4992801;28;19936;-86
2021/07/20 00:37:01;;;;;;;;;;;15.60;68.40;14.80;102110.00;;;;5037753;28;19924;-87
2021/07/20 00:39:27;;;;;;;;;;;15.60;67.70;14.80;102105.00;;;;5023785;28;20027;-86
2021/07/20 00:41:54;;;;;;;;;;;15.60;68.10;14.80;102110.00;;;;5012535;28;19932;-87
2021/07/20 00:44:21;;;;;;;;;;;;;14.80;102120.00;;;;5029167;28;19927;-87
2021/07/20 00:46:48;;;;;;;;;;;15.60;66.90;14.80;102122.00;;;;5040246;28;20484;-86
2021/07/20 00:49:13;;;;;;;;;;;15.50;68.20;14.70;102092.00;;;;5024099;28;19924;-86
2021/07/20 00:51:41;;;;;;;;;;;15.50;67.60;14.70;102108.00;;;;5008694;28;19924;-86
2021/07/20 00:54:07;;;;;;;;;;;17.00;69.10;14.70;102097.00;;;;5029645;28;20419;-87
2021/07/20 00:56:33;;;;;;;;;;;15.50;68.90;14.70;102097.00;;;;5009283;28;20027;-87
2021/07/20 00:59:00;;;;;;;;;;;15.40;67.50;14.60;102094.00;;;;5009359;28;20005;-86
2021/07/20 01:01:28;;;;;;;;;;;15.50;68.50;14.60;102102.00;;;;5028898;28;19967;-86
2021/07/20 01:03:56;;;;;;;;;;;15.40;66.70;14.60;102087.00;;;;5043150;28;20641;-86
2021/07/20 01:06:34;;;;;;;;;;;15.40;67.90;14.50;102091.00;;;;5000983;28;20011;-86
2021/07/20 01:09:03;;;;;;;;;;;15.30;67.40;14.50;102094.00;;;;5012779;28;19939;-87
2021/07/20 01:11:32;;;;;;;;;;;;;14.50;102089.00;;;;5020143;28;19932;-85
2021/07/20 01:14:04;;;;;;;;;;;15.30;69.90;14.50;102093.00;;;;5010689;28;19921;-86
2021/07/20 01:16:34;;;;;;;;;;;15.30;68.70;14.40;102075.00;;;;5010743;28;19920;-86
2021/07/20 01:19:02;;;;;;;;;;;;;14.40;102084.00;;;;4996016;28;20398;-86
2021/07/20 01:21:32;;;;;;;;;;;15.20;68.40;14.40;102067.00;;;;5021809;28;19979;-86
2021/07/20 01:23:59;;;;;;;;;;;15.20;69.70;14.30;102069.00;;;;5023092;28;20591;-86
2021/07/20 01:26:26;;;;;;;;;;;;;14.30;102087.00;;;;5023179;28;19947;-86
2021/07/20 01:28:53;;;;;;;;;;;15.20;69.10;14.30;102081.00;;;;5023129;28;20012;-87
2021/07/20 01:31:24;;;;;;;;;;;15.20;68.60;14.30;102077.00;;;;4994980;28;20648;-87
2021/07/20 01:33:57;;;;;;;;;;;14.70;68.60;14.30;102089.00;;;;5039220;28;19936;-87
2021/07/20 01:36:30;;;;;;;;;;;15.10;69.00;14.20;102078.00;;;;4988010;28;19948;-87
2021/07/20 01:38:58;;;;;;;;;;;;;14.20;102075.00;;;;5010538;28;20497;-87
2021/07/20 01:41:30;;;;;;;;;;;15.00;69.40;14.20;102075.00;;;;5021652;28;19917;-87
2021/07/20 01:44:02;;;;;;;;;;;15.10;68.60;14.20;102074.00;;;;5041151;28;19935;-87
2021/07/20 01:46:34;;;;;;;;;;;15.00;70.00;14.20;102074.00;;;;5024186;28;19924;-87
2021/07/20 01:49:03;;;;;;;;;;;;;14.20;102082.00;;;;5027238;28;19941;-87
2021/07/20 01:51:31;;;;;;;;;;;15.00;70.40;14.20;102086.00;;;;5014793;28;19956;-86
2021/07/20 01:53:59;;;;;;;;;;;;;14.10;102081.00;;;;5017039;28;19929;-87
2021/07/20 01:56:26;;;;;;;;;;;15.00;69.90;14.10;102084.00;;;;5045841;28;19921;-86
2021/07/20 01:58:53;;;;;;;;;;;15.00;71.00;14.10;102096.00;;;;5027018;28;19929;-87
2021/07/20 02:01:29;;;;;;;;;;;;;14.10;102093.00;;;;5018442;28;19931;-86
2021/07/20 02:04:17;;;;;;;;;;;15.00;70.20;14.10;102074.00;;;;5012870;28;20000;-86
2021/07/20 02:09:36;;;;;;;;;;;14.90;70.00;14.00;102088.00;;;;5001476;28;19932;-87
2021/07/20 02:12:12;;;;;;;;;;;14.90;70.20;14.00;102084.00;;;;5008003;28;20294;-87
2021/07/20 02:15:05;;;;;;;;;;;14.80;69.50;13.90;102094.00;;;;5002489;28;20063;-87
2021/07/20 02:18:01;;;;;;;;;;;14.80;71.00;13.80;102097.00;;;;4935563;28;20046;-87
2021/07/20 02:20:30;;;;;;;;;;;14.70;71.30;13.80;102093.00;;;;4977793;28;19927;-88
2021/07/20 02:23:04;;;;;;;;;;;14.70;71.20;13.70;102087.00;;;;4997013;28;19929;-85
2021/07/20 02:25:33;;;;;;;;;;;;;13.70;102095.00;;;;5009931;28;20411;-87
2021/07/20 02:28:02;;;;;;;;;;;14.60;70.50;13.60;102086.00;;;;4991147;28;19920;-87
2021/07/20 02:30:48;;;;;;;;;;;14.50;70.80;13.50;102089.00;;;;5011439;28;20052;-86
2021/07/20 02:33:14;;;;;;;;;;;14.40;70.10;13.40;102077.00;;;;4987048;28;19932;-86
2021/07/20 02:35:41;;;;;;;;;;;14.30;71.10;13.30;102080.00;;;;4976380;28;19920;-86
2021/07/20 02:38:24;;;;;;;;;;;14.20;71.30;13.30;102084.00;;;;4999506;28;19927;-87
2021/07/20 02:40:50;;;;;;;;;;;;;13.20;102088.00;;;;4992010;28;19928;-87
2021/07/20 02:43:20;;;;;;;;;;;14.20;71.90;13.20;102077.00;;;;4981916;28;19932;-87
2021/07/20 02:45:47;;;;;;;;;;;14.10;71.80;13.10;102082.00;;;;4995610;28;19925;-87
2021/07/20 02:48:14;;;;;;;;;;;14.10;72.00;13.10;102082.00;;;;4991094;28;19921;-86
2021/07/20 02:50:43;;;;;;;;;;;14.10;73.00;13.10;102077.00;;;;4988869;28;19925;-87
2021/07/20 02:53:17;;;;;;;;;;;14.00;71.40;13.00;102070.00;;;;4991411;28;19922;-87
2021/07/20 02:55:52;;;;;;;;;;;14.00;71.40;13.00;102088.00;;;;5007580;28;19936;-86
2021/07/20 02:58:18;;;;;;;;;;;13.90;71.90;12.90;102074.00;;;;4989453;28;20036;-86
2021/07/20 03:00:46;;;;;;;;;;;13.90;72.40;12.90;102081.00;;;;5006507;28;20026;-86
2021/07/20 03:03:12;;;;;;;;;;;13.80;72.00;12.90;102063.00;;;;4992996;28;19925;-84
2021/07/20 03:05:47;;;;;;;;;;;13.80;73.20;12.90;102070.00;;;;4978197;28;19932;-86
2021/07/20 03:08:16;;;;;;;;;;;13.70;71.40;12.80;102086.00;;;;5019580;28;19971;-83
2021/07/20 03:10:56;;;;;;;;;;;13.80;73.00;12.90;102078.00;;;;5002074;28;19969;-84
2021/07/20 03:13:25;;;;;;;;;;;13.80;73.80;12.80;102078.00;;;;4985147;28;19964;-87
2021/07/20 03:15:52;;;;;;;;;;;13.80;72.30;12.90;102083.00;;;;4987261;28;20327;-86
2021/07/20 03:18:24;;;;;;;;;;;13.80;72.40;12.80;102087.00;;;;5007782;28;20000;-86
2021/07/20 03:20:51;;;;;;;;;;;13.80;72.70;12.90;102086.00;;;;5009819;28;19928;-87
2021/07/20 03:23:20;;;;;;;;;;;13.80;72.40;12.80;102084.00;;;;4992528;28;19925;-87
2021/07/20 03:25:49;;;;;;;;;;;13.70;72.50;12.80;102085.00;;;;5000571;28;20363;-88
2021/07/20 03:28:15;;;;;;;;;;;13.80;72.50;12.80;102093.00;;;;4996001;28;19995;-88
2021/07/20 03:30:43;;;;;;;;;;;;;12.80;102094.00;;;;5017763;28;19956;-86
2021/07/20 03:33:12;;;;;;;;;;;13.80;72.30;12.80;102073.00;;;;5006477;28;19998;-86
2021/07/20 03:35:56;;;;;;;;;;;13.80;72.90;12.80;102084.00;;;;5008320;28;20398;-86
2021/07/20 03:38:22;;;;;;;;;;;14.10;72.70;12.80;102090.00;;;;5022421;28;19926;-87
2021/07/20 03:40:54;;;;;;;;;;;13.70;72.70;12.80;102085.00;;;;5006593;28;19925;-84
2021/07/20 03:43:23;;;;;;;;;;;13.70;73.20;12.80;102085.00;;;;4991873;28;19921;-86
2021/07/20 03:45:51;;;;;;;;;;;13.70;72.30;12.80;102084.00;;;;4984783;28;19978;-86
2021/07/20 03:48:20;;;;;;;;;;;13.70;72.90;12.70;102078.00;;;;5005511;28;19925;-86
2021/07/20 03:50:53;;;;;;;;;;;13.60;71.80;12.70;102085.00;;;;5004988;28;19933;-86
2021/07/20 03:53:19;;;;;;;;;;;13.60;72.50;12.70;102081.00;;;;5002796;28;20020;-86
2021/07/20 03:55:49;;;;;;;;;;;13.60;72.60;12.60;102085.00;;;;5021321;28;19921;-86
2021/07/20 03:58:17;;;;;;;;;;;13.50;73.00;12.60;102092.00;;;;4984222;28;20036;-85
2021/07/20 04:00:50;;;;;;;;;;;13.50;72.00;12.60;102091.00;;;;5011254;28;20465;-87
2021/07/20 04:03:24;;;;;;;;;;;13.40;72.40;12.50;102095.00;;;;4995300;28;19929;-87
2021/07/20 04:06:17;;;;;;;;;;;13.40;73.10;12.50;102086.00;;;;5010684;28;19932;-86
2021/07/20 04:09:03;;;;;;;;;;;13.40;73.90;12.40;102089.00;;;;5015358;28;20903;-87
2021/07/20 04:12:01;;;;;;;;;;;13.30;71.50;12.40;102087.00;;;;5025512;28;19929;-87
2021/07/20 04:14:50;;;;;;;;;;;13.30;72.10;12.40;102088.00;;;;5034728;28;19933;-87
2021/07/20 04:17:17;;;;;;;;;;;13.30;72.90;12.40;102083.00;;;;5007631;28;20733;-87
2021/07/20 04:19:43;;;;;;;;;;;13.30;73.10;12.40;102069.00;;;;5034452;28;19932;-87
2021/07/20 04:22:10;;;;;;;;;;;13.30;73.10;12.40;102087.00;;;;4978016;28;20473;-88
2021/07/20 04:24:38;;;;;;;;;;;13.30;73.50;12.40;102085.00;;;;5009919;28;19924;-87
2021/07/20 04:27:07;;;;;;;;;;;13.30;72.90;12.40;102083.00;;;;4991427;28;19978;-87
2021/07/20 04:29:36;;;;;;;;;;;;;12.40;102088.00;;;;5003416;28;19976;-88
2021/07/20 04:32:04;;;;;;;;;;;13.30;73.50;12.30;102085.00;;;;5022740;28;19920;-87
2021/07/20 04:34:35;;;;;;;;;;;13.20;73.30;12.30;102080.00;;;;5006722;28;19924;-88
2021/07/20 04:37:16;;;;;;;;;;;13.30;73.90;12.40;102099.00;;;;5010093;28;19951;-88
2021/07/20 04:39:57;;;;;;;;;;;13.30;73.60;12.40;102102.00;;;;5029882;28;19924;-87
2021/07/20 04:42:26;;;;;;;;;;;13.30;72.80;12.40;102097.00;;;;5016650;28;19937;-86
2021/07/20 04:44:52;;;;;;;;;;;13.30;74.30;12.40;102100.00;;;;5019477;28;19924;-87
2021/07/20 04:47:45;;;;;;;;;;;13.30;73.00;12.50;102114.00;;;;5021117;28;20426;-87
2021/07/20 04:50:37;;;;;;;;;;;13.40;73.80;12.50;102100.00;;;;5001117;28;19924;-87
2021/07/20 04:53:06;;;;;;;;;;;13.40;73.20;12.60;102103.00;;;;5026813;28;19924;-87
2021/07/20 04:55:34;;;;;;;;;;;13.50;74.20;12.60;102087.00;;;;4991423;28;19959;-87
2021/07/20 04:58:03;;;;;;;;;;;13.50;73.80;12.70;102101.00;;;;5018343;28;19921;-86
2021/07/20 05:00:29;;;;;;;;;;;13.60;74.00;12.70;102093.00;;;;5005160;28;19925;-86
2021/07/20 05:03:01;;;;;;;;;;;13.60;74.50;12.80;102103.00;;;;5022643;28;19924;-85
2021/07/20 05:05:31;;;;;;;;;;;13.60;73.60;12.90;102102.00;;;;5018597;28;19978;-85
2021/07/20 05:07:59;;;;;;;;;;;;;13.00;102100.00;;;;5012514;28;19929;-87
2021/07/20 05:10:28;;;;;;;;;;;13.80;73.20;13.10;102104.00;;;;4997904;28;19921;-85
2021/07/20 05:13:15;;;;;;;;;;;13.90;74.30;13.20;102109.00;;;;4994611;28;19982;-87
2021/07/20 05:15:43;;;;;;;;;;;14.10;74.50;13.40;102114.00;;;;5031199;28;19928;-87
2021/07/20 05:18:12;;;;;;;;;;;14.20;74.90;13.50;102094.00;;;;5019403;28;19924;-86
2021/07/20 05:20:41;;;;;;;;;;;14.30;74.00;13.70;102113.00;;;;5019395;28;20041;-86
2021/07/20 05:23:07;;;;;;;;;;;14.50;73.20;13.80;102111.00;;;;5022439;28;19928;-86
2021/07/20 05:25:34;;;;;;;;;;;14.50;73.80;13.90;102101.00;;;;4990185;28;19959;-86
2021/07/20 05:28:03;;;;;;;;;;;14.70;72.70;14.10;102102.00;;;;5003043;28;20572;-86
2021/07/20 05:30:31;;;;;;;;;;;14.80;72.50;14.20;102104.00;;;;5018806;28;19950;-86
2021/07/20 05:32:59;;;;;;;;;;;14.90;72.70;14.30;102108.00;;;;5019935;28;19990;-86
2021/07/20 05:35:57;;;;;;;;;;;15.00;72.40;14.40;102108.00;;;;5005452;28;19921;-87
2021/07/20 05:38:25;;;;;;;;;;;;;14.60;102114.00;;;;5008356;28;19948;-87
2021/07/20 05:41:13;;;;;;;;;;;15.30;71.30;14.70;102106.00;;;;5031564;28;20323;-87
2021/07/20 05:43:41;;;;;;;;;;;;;14.80;102113.00;;;;5020823;28;20540;-87
2021/07/20 05:46:07;;;;;;;;;;;15.50;71.40;14.90;102114.00;;;;5032157;28;20631;-86
2021/07/20 05:48:33;;;;;;;;;;;15.60;70.50;15.10;102112.00;;;;5001524;28;19920;-86
2021/07/20 05:51:05;;;;;;;;;;;15.70;71.20;15.20;102107.00;;;;5018795;28;19924;-87
2021/07/20 05:53:36;;;;;;;;;;;15.80;71.30;15.30;102128.00;;;;4990369;28;19925;-86
2021/07/20 05:56:21;;;;;;;;;;;15.90;70.00;15.40;102130.00;;;;5021988;28;19932;-88
2021/07/20 05:59:02;;;;;;;;;;;16.00;70.70;15.40;102127.00;;;;5033354;28;19929;-88
2021/07/20 06:01:32;;;;;;;;;;;;;15.50;102129.00;;;;5003379;28;20522;-88
2021/07/20 06:03:59;;;;;;;;;;;;;15.70;102125.00;;;;4989041;28;20004;-88
2021/07/20 06:06:27;;;;;;;;;;;16.30;70.40;15.80;102130.00;;;;4986338;28;19932;-88
2021/07/20 06:08:57;;;;;;;;;;;16.40;69.70;15.80;102134.00;;;;4985178;28;19936;-88
2021/07/20 06:11:24;;;;;;;;;;;16.40;69.10;15.90;102133.00;;;;4984802;28;20067;-88
2021/07/20 06:13:52;;;;;;;;;;;16.50;69.10;16.00;102127.00;;;;5001729;28;20540;-89
2021/07/20 06:16:22;;;;;;;;;;;16.60;69.40;16.10;102133.00;;;;4986031;28;19925;-88
2021/07/20 06:18:48;;;;;;;;;;;16.70;69.00;16.20;102129.00;;;;4987124;28;19931;-89
2021/07/20 06:21:14;;;;;;;;;;;16.80;68.00;16.30;102140.00;;;;5019538;28;20016;-89
2021/07/20 06:23:44;;;;;;;;;;;16.90;68.50;16.30;102147.00;;;;5007803;28;19928;-89
2021/07/20 06:26:11;;;;;;;;;;;16.90;68.90;16.50;102145.00;;;;5037834;28;19929;-89
2021/07/20 06:28:37;;;;;;;;;;;;;16.60;102149.00;;;;4988665;28;20302;-87
2021/07/20 06:31:03;;;;;;;;;;;;;16.70;102142.00;;;;5036915;28;19932;-88
2021/07/20 06:33:30;;;;;;;;;;;17.30;68.40;16.80;102142.00;;;;5021504;28;19927;-88
2021/07/20 06:35:56;;;;;;;;;;;17.40;68.30;16.90;102134.00;;;;5010235;28;19929;-89
2021/07/20 06:38:23;;;;;;;;;;;17.50;68.10;17.10;102149.00;;;;5008386;28;19929;-88
2021/07/20 06:40:51;;;;;;;;;;;17.60;67.00;17.10;102156.00;;;;5021793;28;20016;-89
2021/07/20 06:43:18;;;;;;;;;;;17.70;67.20;17.20;102151.00;;;;5016635;28;20912;-90
2021/07/20 06:45:46;;;;;;;;;;;17.70;66.60;17.30;102157.00;;;;4973988;28;20015;-89
2021/07/20 06:48:13;;;;;;;;;;;17.80;66.40;17.40;102163.00;;;;4992760;28;19928;-89
2021/07/20 06:50:41;;;;;;;;;;;17.90;66.90;17.40;102150.00;;;;5011901;28;19959;-88
2021/07/20 06:53:07;;;;;;;;;;;18.00;66.10;17.50;102155.00;;;;5027630;28;19956;-88
2021/07/20 06:55:37;;;;;;;;;;;;;17.50;102158.00;;;;5008841;28;19928;-89
2021/07/20 06:58:06;;;;;;;;;;;18.10;66.50;17.60;102157.00;;;;5026172;28;19973;-86
2021/07/20 07:00:32;;;;;;;;;;;18.10;66.40;17.70;102166.00;;;;5017820;28;19925;-88
2021/07/20 07:03:00;;;;;;;;;;;18.20;66.00;17.70;102156.00;;;;4998333;28;19947;-89
2021/07/20 07:05:30;;;;;;;;;;;18.30;66.70;17.90;102153.00;;;;5017833;28;19925;-90
2021/07/20 07:07:58;;;;;;;;;;;18.40;66.20;18.00;102163.00;;;;5025080;28;19955;-90
2021/07/20 07:10:24;;;;;;;;;;;;;18.10;102165.00;;;;5020737;28;19967;-90
2021/07/20 07:12:51;;;;;;;;;;;18.60;65.60;18.10;102165.00;;;;4994464;28;19976;-90
2021/07/20 07:15:18;;;;;;;;;;;18.60;65.10;18.10;102164.00;;;;5006257;28;19917;-89
2021/07/20 07:17:49;;;;;;;;;;;18.70;65.30;18.20;102165.00;;;;5022630;28;19971;-89
2021/07/20 07:20:25;;;;;;;;;;;18.80;65.60;18.40;102180.00;;;;5020975;28;19931;-89
2021/07/20 07:22:52;;;;;;;;;;;18.90;65.10;18.50;102178.00;;;;5018358;28;19982;-90
2021/07/20 07:25:19;;;;;;;;;;;;;18.50;102175.00;;;;5036409;28;19928;-89
2021/07/20 07:27:45;;;;;;;;;;;19.00;64.30;18.70;102176.00;;;;5007928;28;20311;-88
2021/07/20 07:30:12;;;;;;;;;;;19.10;64.10;18.70;102175.00;;;;5001546;28;20187;-89
2021/07/20 07:32:38;;;;;;;;;;;19.20;65.10;18.80;102185.00;;;;5017237;28;19971;-89
2021/07/20 07:35:06;;;;;;;;;;;19.30;64.50;18.90;102173.00;;;;4992686;28;19924;-89
2021/07/20 07:37:34;;;;;;;;;;;19.40;63.00;18.90;102172.00;;;;4991689;28;19929;-89
2021/07/20 07:40:00;;;;;;;;;;;19.40;64.10;19.00;102187.00;;;;5026344;28;19917;-89
2021/07/20 07:42:27;;;;;;;;;;;19.50;64.60;19.00;102183.00;;;;5011882;28;19963;-90
2021/07/20 07:44:55;;;;;;;;;;;19.50;64.60;19.00;102170.00;;;;5009848;28;19932;-90
2021/07/20 07:47:24;;;;;;;;;;;19.40;63.80;18.90;102161.00;;;;5023343;28;19959;-90
2021/07/20 07:49:50;;;;;;;;;;;19.50;64.80;19.10;102176.00;;;;5008569;28;20399;-88
2021/07/20 07:52:16;;;;;;;;;;;19.60;62.60;19.20;102182.00;;;;5040513;28;19928;-90
2021/07/20 07:54:45;;;;;;;;;;;19.70;64.30;19.30;102161.00;;;;5004978;28;19924;-90
2021/07/20 07:57:11;;;;;;;;;;;19.70;62.90;19.20;102163.00;;;;5053460;28;19927;-89
2021/07/20 07:59:39;;;;;;;;;;;19.80;62.70;19.30;102189.00;;;;4992049;28;19924;-89
2021/07/20 08:02:08;;;;;;;;;;;19.80;64.00;19.40;102178.00;;;;4994769;28;19928;-89
2021/07/20 08:04:34;;;;;;;;;;;;;19.30;102175.00;;;;5005166;28;19925;-89
2021/07/20 08:07:00;;;;;;;;;;;;;19.20;102175.00;;;;5019368;28;20162;-89
2021/07/20 08:09:30;;;;;;;;;;;19.90;61.60;19.40;102171.00;;;;5017824;28;19929;-90
2021/07/20 08:11:56;;;;;;;;;;;;;19.70;102180.00;;;;5022219;28;19936;-89
2021/07/20 08:14:22;;;;;;;;;;;20.20;61.70;19.90;102181.00;;;;5019769;28;19931;-89
2021/07/20 08:16:50;;;;;;;;;;;20.30;61.50;19.90;102166.00;;;;5005117;28;19960;-89
2021/07/20 08:19:19;;;;;;;;;;;20.30;61.80;19.90;102174.00;;;;5022849;28;19936;-89
2021/07/20 08:21:46;;;;;;;;;;;20.30;58.80;19.70;102186.00;;;;5023793;28;20759;-88
2021/07/20 08:24:13;;;;;;;;;;;20.20;60.10;19.70;102191.00;;;;5006604;28;20012;-89
2021/07/20 08:26:52;;;;;;;;;;;20.20;60.40;19.80;102188.00;;;;4999572;28;19922;-89
2021/07/20 08:29:19;;;;;;;;;;;20.30;57.60;19.90;102191.00;;;;5040973;28;19986;-89
2021/07/20 08:31:53;;;;;;;;;;;;;19.70;102190.00;;;;5005681;28;19921;-89
2021/07/20 08:34:20;;;;;;;;;;;20.30;60.00;19.80;102191.00;;;;5026491;28;20440;-89
2021/07/20 08:36:47;;;;;;;;;;;20.40;59.10;20.00;102178.00;;;;5006645;28;19951;-89
2021/07/20 08:39:13;;;;;;;;;;;20.60;60.30;20.20;102191.00;;;;5015798;28;19925;-89
2021/07/20 08:41:48;;;;;;;;;;;20.70;60.00;20.30;102199.00;;;;5021991;28;20020;-89
2021/07/20 08:44:27;;;;;;;;;;;20.80;61.00;20.40;102191.00;;;;5005325;28;19971;-89
2021/07/20 08:47:15;;;;;;;;;;;20.70;60.50;20.20;102193.00;;;;5007990;28;19936;-89
2021/07/20 08:50:03;;;;;;;;;;;20.70;60.20;20.10;102192.00;;;;5017247;28;19924;-88
2021/07/20 08:52:36;;;;;;;;;;;20.80;58.40;20.40;102191.00;;;;5036226;28;19929;-89
2021/07/20 08:55:13;;;;;;;;;;;20.90;56.60;20.40;102179.00;;;;4992085;28;19931;-89
2021/07/20 08:57:46;;;;;;;;;;;20.90;58.80;20.60;102193.00;;;;5020430;28;20345;-90
2021/07/20 09:00:15;;;;;;;;;;;21.00;57.90;20.60;102200.00;;;;4994738;28;19979;-88
2021/07/20 09:02:56;;;;;;;;;;;21.00;56.40;20.60;102207.00;;;;4995750;28;19920;-90
2021/07/20 09:05:26;;;;;;;;;;;20.90;58.00;20.50;102206.00;;;;5028075;28;20342;-89
2021/07/20 09:08:00;;;;;;;;;;;21.10;60.50;20.60;102202.00;;;;5056234;28;19925;-88
2021/07/20 09:10:38;;;;;;;;;;;21.20;56.50;20.90;102196.00;;;;4993226;28;19925;-90
2021/07/20 09:13:11;;;;;;;;;;;21.30;56.30;20.90;102200.00;;;;5049593;28;19921;-90
2021/07/20 09:15:44;;;;;;;;;;;21.30;58.00;20.80;102191.00;;;;5003492;28;19920;-89
2021/07/20 09:18:52;;;;;;;;;;;21.30;57.60;20.70;102215.00;;;;5004429;28;19978;-90
2021/07/20 09:21:19;;;;;;;;;;;;;20.80;102202.00;;;;5014003;28;20175;-89
2021/07/20 09:23:51;;;;;;;;;;;;;20.90;102205.00;;;;5022971;28;19921;-89
2021/07/20 09:26:22;;;;;;;;;;;21.50;60.00;21.00;102201.00;;;;4996450;28;20027;-88
2021/07/20 09:29:07;;;;;;;;;;;21.40;59.30;20.90;102209.00;;;;5024655;28;19921;-89
2021/07/20 09:31:52;;;;;;;;;;;21.40;58.10;20.90;102193.00;;;;4990345;28;19924;-87
2021/07/20 09:34:26;;;;;;;;;;;21.50;58.50;21.00;102196.00;;;;5009627;28;20298;-88
2021/07/20 09:37:03;;;;;;;;;;;21.50;57.00;21.10;102208.00;;;;5038771;28;19932;-88
2021/07/20 09:39:49;;;;;;;;;;;21.70;53.00;21.40;102198.00;;;;5023651;28;19989;-90
2021/07/20 09:42:35;;;;;;;;;;;22.00;54.20;21.70;102206.00;;;;5037849;28;19932;-88
2021/07/20 09:45:08;;;;;;;;;;;22.10;57.80;21.90;102211.00;;;;5027504;28;19987;-91
2021/07/20 09:47:45;;;;;;;;;;;22.30;50.30;22.10;102202.00;;;;5007744;28;19920;-91
2021/07/20 09:50:14;;;;;;;;;;;22.50;56.60;22.10;102196.00;;;;5006511;28;19925;-90
2021/07/20 09:53:18;;;;;;;;;;;22.60;56.20;22.30;102197.00;;;;5019543;28;19920;-89
2021/07/20 09:56:05;;;;;;;;;;;22.70;55.50;22.40;102201.00;;;;5017082;28;20074;-90
2021/07/20 09:59:15;;;;;;;;;;;22.80;52.30;22.40;102202.00;;;;5025536;28;20039;-90
2021/07/20 10:01:57;;;;;;;;;;;22.90;55.60;22.60;102199.00;;;;5024859;28;19929;-90
2021/07/20 10:04:41;;;;;;;;;;;23.00;54.20;22.70;102196.00;;;;5025249;28;19921;-90
2021/07/20 10:07:25;;;;;;;;;;;23.20;56.00;22.80;102203.00;;;;5016288;28;20015;-90
2021/07/20 10:10:00;;;;;;;;;;;22.90;56.50;22.30;102185.00;;;;5023078;28;19924;-90
2021/07/20 10:12:39;;;;;;;;;;;22.90;54.80;22.30;102201.00;;;;5005716;28;19921;-89
2021/07/20 10:15:07;;;;;;;;;;;23.00;57.00;22.50;102191.00;;;;5029955;28;20096;-89
2021/07/20 10:17:40;;;;;;;;;;;23.10;53.80;22.80;102198.00;;;;4987935;28;19982;-90
2021/07/20 10:20:14;;;;;;;;;;;23.30;52.00;23.00;102199.00;;;;5020781;28;19929;-89
2021/07/20 10:22:49;;;;;;;;;;;23.50;54.70;23.10;102189.00;;;;5017643;28;19925;-89
2021/07/20 10:25:20;;;;;;;;;;;;;23.20;102197.00;;;;5036674;28;19936;-89
2021/07/20 10:28:02;;;;;;;;;;;23.60;52.50;23.10;102198.00;;;;5041159;28;20011;-90
2021/07/20 10:30:30;;;;;;;;;;;23.40;53.80;22.70;102195.00;;;;5021912;28;19935;-90
2021/07/20 10:33:08;;;;;;;;;;;23.30;54.40;22.70;102193.00;;;;5007621;28;19924;-90
2021/07/20 10:35:38;;;;;;;;;;;23.30;53.70;22.80;102191.00;;;;5025467;28;19920;-89
2021/07/20 10:38:08;;;;;;;;;;;23.20;54.20;22.50;102180.00;;;;5006837;28;19947;-90
2021/07/20 10:40:34;;;;;;;;;;;23.00;55.50;22.30;102186.00;;;;5016104;28;20346;-89
2021/07/20 10:43:05;;;;;;;;;;;22.90;52.10;22.30;102187.00;;;;5006556;28;19947;-89
2021/07/20 10:45:34;;;;;;;;;;;22.90;55.50;22.20;102180.00;;;;5023199;28;19924;-89
2021/07/20 10:48:13;;;;;;;;;;;23.00;55.30;22.50;102181.00;;;;5005112;28;19921;-89
2021/07/20 10:50:54;;;;;;;;;;;23.10;50.60;22.70;102182.00;;;;5007327;28;20362;-90
2021/07/20 10:53:59;;;;;;;;;;;23.30;54.50;22.80;102189.00;;;;5040140;28;19925;-90
2021/07/20 10:56:32;;;;;;;;;;;23.20;48.60;22.60;102184.00;;;;5011772;28;19931;-89
2021/07/20 10:59:27;;;;;;;;;;;23.00;54.30;22.40;102188.00;;;;5011753;28;20322;-89
2021/07/20 11:02:27;;;;;;;;;;;23.10;48.60;22.50;102188.00;;;;5023212;28;20036;-89
2021/07/20 11:04:57;;;;;;;;;;;23.30;51.00;23.00;102183.00;;;;5024216;28;19929;-89
2021/07/20 11:07:34;;;;;;;;;;;23.50;53.10;23.30;102179.00;;;;5021580;28;20019;-90
2021/07/20 11:10:10;;;;;;;;;;;23.80;54.70;23.50;102185.00;;;;5021475;28;19921;-88
2021/07/20 11:12:39;;;;;;;;;;;23.60;52.40;23.10;102180.00;;;;5028038;28;20398;-89
2021/07/20 11:15:06;;;;;;;;;;;23.30;53.50;22.60;102175.00;;;;5025027;28;20530;-90
2021/07/20 11:17:37;;;;;;;;;;;23.20;52.80;22.50;102177.00;;;;5005302;28;19920;-91
2021/07/20 11:20:11;;;;;;;;;;;23.10;52.60;22.50;102172.00;;;;5006181;28;19928;-91
2021/07/20 11:22:39;;;;;;;;;;;23.20;52.00;22.60;102176.00;;;;5023915;28;19924;-90
2021/07/20 11:25:06;;;;;;;;;;;23.10;53.70;22.40;102179.00;;;;5017364;28;20015;-90
2021/07/20 11:27:33;;;;;;;;;;;23.10;52.10;22.60;102180.00;;;;4993136;28;19928;-90
2021/07/20 11:29:59;;;;;;;;;;;23.30;53.30;22.80;102175.00;;;;5009046;28;19925;-90
2021/07/20 11:32:28;;;;;;;;;;;23.40;54.10;23.00;102180.00;;;;5037039;28;19964;-89
2021/07/20 11:35:06;;;;;;;;;;;23.40;53.90;22.90;102179.00;;;;5007195;28;19943;-90
2021/07/20 11:37:36;;;;;;;;;;;23.40;52.30;22.90;102170.00;;;;5017866;28;19925;-90
2021/07/20 11:40:16;;;;;;;;;;;23.60;51.80;23.30;102196.00;;;;5026199;28;19997;-89
2021/07/20 11:42:53;;;;;;;;;;;23.80;52.30;23.50;102180.00;;;;5008495;28;19925;-86
2021/07/20 11:45:20;;;;;;;;;;;;;23.30;102191.00;;;;5006113;28;20848;-88
2021/07/20 11:48:27;;;;;;;;;;;23.50;53.20;22.70;102190.00;;;;5023544;28;19921;-89
2021/07/20 11:51:02;;;;;;;;;;;23.40;53.80;22.70;102169.00;;;;4925898;29;19927;-90
2021/07/20 11:53:47;;;;;;;;;;;;;22.90;102187.00;;;;5010947;28;19924;-89
2021/07/20 11:56:20;;;;;;;;;;;23.50;53.20;23.00;102181.00;;;;5024940;28;20388;-88
2021/07/20 11:59:42;;;;;;;;;;;23.60;50.50;23.30;102175.00;;;;5049267;28;19921;-89
2021/07/20 12:02:33;;;;;;;;;;;23.70;50.70;23.20;102178.00;;;;5050882;28;19928;-90
2021/07/20 12:05:22;;;;;;;;;;;23.70;50.80;23.20;102177.00;;;;5040632;28;19925;-89
2021/07/20 12:07:54;;;;;;;;;;;23.90;52.70;23.50;102173.00;;;;5027830;28;19928;-89
2021/07/20 12:10:39;;;;;;;;;;;;;23.50;102175.00;;;;5002068;28;19966;-89
2021/07/20 12:13:08;;;;;;;;;;;23.90;48.40;23.40;102188.00;;;;5022163;28;19943;-89
2021/07/20 12:15:40;;;;;;;;;;;23.80;50.40;23.30;102156.00;;;;5005453;28;19917;-90
2021/07/20 12:18:06;;;;;;;;;;;23.80;51.60;23.20;102161.00;;;;5023565;28;19920;-88
2021/07/20 12:20:33;;;;;;;;;;;23.90;51.00;23.40;102167.00;;;;5006911;28;19933;-89
2021/07/20 12:23:00;;;;;;;;;;;24.10;51.10;23.70;102178.00;;;;5034868;28;19925;-89
2021/07/20 12:25:26;;;;;;;;;;;;;23.60;102167.00;;;;5022408;28;19964;-90
2021/07/20 12:27:54;;;;;;;;;;;24.20;47.50;23.70;102162.00;;;;5024739;28;19928;-90
2021/07/20 12:30:23;;;;;;;;;;;24.20;51.80;23.60;102160.00;;;;5006260;28;19925;-89